This is the latest recevied weather packets stored in our database for station/object N8HON. If no packets are shown the sender has not sent any weather packets the latest 10 day(s).
| Time | Temp. | Humidity | Pressure | Rain* | Wind** | Luminosity | Snow |
|---|---|---|---|---|---|---|---|
| 1777654578 | 16.11° C | 41% | 1010.5 hPa | 0 mm | - | 666 W/m² | - |
| 1777654276 | 16.11° C | 44% | 1010.5 hPa | 0 mm | - | 675 W/m² | - |
| 1777653974 | 16.11° C | 43% | 1010.8 hPa | 0 mm | - | 728 W/m² | - |
| 1777653670 | 15.56° C | 41% | 1010.8 hPa | 0 mm | - | 721 W/m² | - |
| 1777653367 | 15.56° C | 42% | 1011 hPa | 0 mm | - | 485 W/m² | - |
| 1777653064 | 15.56° C | 47% | 1010.9 hPa | 0 mm | - | 699 W/m² | - |
| 1777652760 | 15° C | 44% | 1011 hPa | 0 mm | - | 573 W/m² | - |
| 1777652457 | 15° C | 46% | 1011.1 hPa | 0 mm | - | 665 W/m² | - |
| 1777652154 | 15° C | 45% | 1011 hPa | 0 mm | - | 626 W/m² | - |
| 1777651851 | 15° C | 55% | 1011.1 hPa | 0 mm | - | 522 W/m² | - |
| 1777651548 | 13.89° C | 50% | 1011.4 hPa | 0 mm | - | 467 W/m² | - |
| 1777651244 | 13.89° C | 49% | 1011.4 hPa | 0 mm | - | 424 W/m² | - |
| 1777650941 | 14.44° C | 51% | 1011.2 hPa | 0 mm | - | 529 W/m² | - |
| 1777650638 | 15° C | 53% | 1011.2 hPa | 0 mm | - | 608 W/m² | - |
| 1777650336 | 14.44° C | 54% | 1011 hPa | 0 mm | - | 594 W/m² | - |
| 1777650032 | 13.89° C | 52% | 1011.3 hPa | 0 mm | - | 624 W/m² | - |
| 1777649730 | 13.89° C | 53% | 1011.4 hPa | 0 mm | - | 529 W/m² | - |
| 1777649426 | 13.89° C | 55% | 1011.5 hPa | 0 mm | - | 590 W/m² | - |
| 1777649123 | 13.89° C | 57% | 1011.6 hPa | 0 mm | - | 623 W/m² | - |
| 1777648821 | 13.33° C | 56% | 1011.7 hPa | 0 mm | - | 600 W/m² | - |
| 1777648517 | 13.33° C | 55% | 1011.8 hPa | 0 mm | - | 592 W/m² | - |
| 1777648215 | 12.78° C | 55% | 1012.3 hPa | 0 mm | - | 543 W/m² | - |
| 1777647909 | 13.89° C | 53% | 1012.1 hPa | 0 mm | - | 577 W/m² | - |
| 1777647607 | 13.89° C | 57% | 1012.3 hPa | 0 mm | - | 603 W/m² | - |
| 1777647302 | 13.33° C | 52% | 1012.5 hPa | 0 mm | - | 527 W/m² | - |
* Rain latest hour (hover to see other rain measurements)
** Current wind speed in m/s (hover to see current wind gust speed)